createdAt,value
2023-03-16T00:00:43.331Z,71.22
2023-03-16T00:03:19.288Z,71.97
2023-03-16T00:05:51.385Z,71.80
2023-03-16T00:08:18.542Z,71.79
2023-03-16T00:10:46.775Z,72.72
2023-03-16T00:13:17.700Z,72.19
2023-03-16T00:15:52.371Z,70.35
2023-03-16T00:18:19.614Z,71.97
2023-03-16T00:20:55.441Z,71.39
2023-03-16T00:23:28.815Z,72.06
2023-03-16T00:25:59.938Z,71.90
2023-03-16T00:28:27.795Z,71.36
2023-03-16T00:30:59.186Z,70.28
2023-03-16T00:33:27.449Z,71.27
2023-03-16T00:36:02.493Z,72.22
2023-03-16T00:38:35.092Z,72.98
2023-03-16T00:41:07.126Z,71.02
2023-03-16T00:43:41.085Z,70.90
2023-03-16T00:46:10.132Z,71.83
2023-03-16T00:48:42.533Z,73.17
2023-03-16T00:51:15.439Z,71.83
2023-03-16T00:53:44.022Z,72.06
2023-03-16T00:56:11.269Z,73.44
2023-03-16T00:58:39.626Z,73.59
2023-03-16T01:01:10.355Z,73.56
2023-03-16T01:03:37.264Z,74.21
2023-03-16T01:06:10.331Z,73.40
2023-03-16T01:08:40.921Z,72.32
2023-03-16T01:11:10.706Z,73.82
2023-03-16T01:13:38.340Z,73.91
2023-03-16T01:16:05.471Z,72.13
2023-03-16T01:18:35.687Z,73.95
2023-03-16T01:21:03.993Z,73.85
2023-03-16T01:23:31.625Z,73.01
2023-03-16T01:25:59.303Z,73.44
2023-03-16T01:28:28.293Z,74.45
2023-03-16T01:31:02.004Z,74.86
2023-03-16T01:33:29.576Z,74.03
2023-03-16T01:36:01.765Z,73.83
2023-03-16T01:38:28.940Z,73.62
2023-03-16T01:40:55.950Z,74.57
2023-03-16T01:43:26.707Z,75.34
2023-03-16T01:46:05.455Z,74.05
2023-03-16T01:48:53.492Z,73.70
2023-03-16T01:51:32.747Z,73.44
2023-03-16T01:54:22.405Z,73.74
2023-03-16T01:56:57.072Z,74.87
2023-03-16T01:59:28.937Z,75.71
2023-03-16T02:01:56.652Z,74.41
2023-03-16T02:04:48.321Z,76.42
2023-03-16T02:07:17.939Z,74.60
2023-03-16T02:09:47.100Z,74.27
2023-03-16T02:12:19.260Z,73.11
2023-03-16T02:14:47.958Z,72.77
2023-03-16T02:17:17.300Z,72.53
2023-03-16T02:20:02.241Z,71.94
2023-03-16T02:22:28.999Z,72.49
2023-03-16T02:24:55.717Z,73.13
2023-03-16T02:28:08.736Z,72.40
2023-03-16T02:30:35.691Z,74.23
2023-03-16T02:33:05.189Z,72.75
2023-03-16T02:35:32.504Z,72.79
2023-03-16T02:37:59.703Z,72.33
2023-03-16T02:40:30.256Z,73.71
2023-03-16T02:43:04.447Z,73.58
2023-03-16T02:45:55.452Z,72.78
2023-03-16T02:48:38.164Z,74.23
2023-03-16T02:51:04.924Z,75.48
2023-03-16T02:53:31.619Z,75.83
2023-03-16T02:55:58.218Z,76.03
2023-03-16T02:58:24.956Z,77.63
2023-03-16T03:00:51.589Z,75.84
2023-03-16T03:03:19.011Z,74.58
2023-03-16T03:05:45.717Z,74.94
2023-03-16T03:08:13.102Z,75.06
2023-03-16T03:10:40.113Z,75.16
2023-03-16T03:13:07.496Z,74.06
2023-03-16T03:15:35.392Z,75.67
2023-03-16T03:18:02.553Z,75.65
2023-03-16T03:20:29.453Z,74.76
2023-03-16T03:22:56.274Z,75.25
2023-03-16T03:25:23.103Z,75.98
2023-03-16T03:27:51.068Z,76.12
2023-03-16T03:30:20.288Z,75.40
2023-03-16T03:32:47.181Z,75.45
2023-03-16T03:35:15.323Z,77.13
2023-03-16T03:37:45.256Z,76.78
2023-03-16T03:40:14.448Z,75.58
2023-03-16T03:42:42.161Z,75.17
2023-03-16T03:45:12.679Z,75.69
2023-03-16T03:47:40.923Z,74.01
2023-03-16T03:50:09.130Z,73.09
2023-03-16T03:52:35.769Z,73.04
2023-03-16T03:55:02.441Z,72.93
2023-03-16T03:57:29.100Z,74.51
2023-03-16T03:59:55.813Z,75.50
2023-03-16T04:02:22.581Z,74.32
2023-03-16T04:04:49.298Z,72.80
2023-03-16T04:07:16.243Z,73.92
2023-03-16T04:09:42.911Z,73.11
2023-03-16T04:12:11.210Z,74.18
2023-03-16T04:14:37.927Z,74.10
2023-03-16T04:17:05.004Z,73.54
2023-03-16T04:19:31.865Z,72.90
2023-03-16T04:21:58.583Z,73.60
2023-03-16T04:24:25.251Z,73.74
2023-03-16T04:26:51.845Z,73.78
2023-03-16T04:29:19.648Z,72.82
2023-03-16T04:31:46.908Z,72.25
2023-03-16T04:34:14.076Z,72.30
2023-03-16T04:36:42.169Z,72.31
2023-03-16T04:39:10.498Z,72.09
2023-03-16T04:41:37.434Z,73.22
2023-03-16T04:44:04.842Z,73.75
2023-03-16T04:46:31.814Z,74.54
2023-03-16T04:48:58.712Z,73.95
2023-03-16T04:51:26.502Z,74.91
2023-03-16T04:53:53.313Z,74.24
2023-03-16T04:56:20.604Z,76.00
2023-03-16T04:58:49.453Z,74.65
2023-03-16T05:01:17.437Z,73.59
2023-03-16T05:03:44.275Z,74.34
2023-03-16T05:06:12.175Z,73.74
2023-03-16T05:08:38.818Z,71.96
2023-03-16T05:11:05.640Z,72.06
2023-03-16T05:13:32.505Z,72.04
2023-03-16T05:15:59.221Z,71.94
2023-03-16T05:18:27.126Z,73.13
2023-03-16T05:20:56.080Z,74.46
2023-03-16T05:23:23.107Z,73.23
2023-03-16T05:25:51.374Z,72.28
2023-03-16T05:28:18.048Z,72.45
2023-03-16T05:30:47.865Z,72.60
2023-03-16T05:33:14.554Z,73.33
2023-03-16T05:35:41.220Z,74.04
2023-03-16T05:38:08.720Z,73.33
2023-03-16T05:40:37.228Z,73.75
2023-03-16T05:43:04.504Z,73.36
2023-03-16T05:45:32.402Z,74.53
2023-03-16T05:47:59.165Z,73.62
2023-03-16T05:50:26.700Z,72.91
2023-03-16T05:52:54.271Z,74.26
2023-03-16T05:55:20.899Z,74.59
2023-03-16T05:57:47.553Z,74.59
2023-03-16T06:00:16.325Z,74.17
2023-03-16T06:02:48.337Z,75.37
2023-03-16T06:05:16.513Z,74.31
2023-03-16T06:07:43.603Z,73.92
2023-03-16T06:10:11.510Z,73.99
2023-03-16T06:12:38.872Z,74.67
2023-03-16T06:15:09.329Z,75.03
2023-03-16T06:17:37.566Z,72.98
2023-03-16T06:20:10.512Z,74.13
2023-03-16T06:22:46.640Z,72.71
2023-03-16T06:25:14.944Z,72.94
2023-03-16T06:27:42.227Z,72.05
2023-03-16T06:30:12.058Z,73.16
2023-03-16T06:32:41.932Z,74.58
2023-03-16T06:35:09.649Z,73.17
2023-03-16T06:37:36.330Z,71.63
2023-03-16T06:40:04.039Z,72.01
2023-03-16T06:42:30.698Z,72.75
2023-03-16T06:44:57.554Z,72.72
2023-03-16T06:47:24.290Z,71.72
2023-03-16T06:49:51.876Z,71.80
2023-03-16T06:52:18.577Z,71.78
2023-03-16T06:54:45.181Z,72.12
2023-03-16T06:57:11.938Z,70.87
2023-03-16T06:59:38.589Z,71.59
2023-03-16T07:02:06.571Z,71.81
2023-03-16T07:04:34.315Z,71.55
2023-03-16T07:07:02.224Z,73.28
2023-03-16T07:09:29.280Z,71.89
2023-03-16T07:11:56.291Z,72.65
2023-03-16T07:14:24.788Z,72.57
2023-03-16T07:16:52.887Z,71.37
2023-03-16T07:19:19.745Z,70.72
2023-03-16T07:21:46.461Z,71.98
2023-03-16T07:24:13.180Z,71.37
2023-03-16T07:26:39.825Z,70.58
2023-03-16T07:29:06.531Z,71.69
2023-03-16T07:31:34.733Z,71.14
2023-03-16T07:34:03.522Z,71.17
2023-03-16T07:36:30.211Z,71.61
2023-03-16T07:38:56.905Z,69.00
2023-03-16T07:41:24.797Z,71.01
2023-03-16T07:43:52.015Z,71.44
2023-03-16T07:46:18.700Z,72.06
2023-03-16T07:48:45.688Z,70.87
2023-03-16T07:51:13.957Z,70.94
2023-03-16T07:53:40.780Z,71.75
2023-03-16T07:56:08.011Z,71.83
2023-03-16T07:58:34.699Z,70.93
2023-03-16T08:01:01.696Z,72.67
2023-03-16T08:03:29.836Z,69.27
2023-03-16T08:05:56.537Z,69.75
2023-03-16T08:08:23.518Z,71.98
2023-03-16T08:10:52.737Z,70.09
2023-03-16T08:13:20.600Z,71.06
2023-03-16T08:15:49.462Z,71.45
2023-03-16T08:18:16.353Z,71.70
2023-03-16T08:20:44.706Z,71.34
2023-03-16T08:23:13.261Z,70.42
2023-03-16T08:25:39.890Z,70.58
2023-03-16T08:28:08.918Z,69.47
2023-03-16T08:30:36.009Z,69.60
2023-03-16T08:33:03.534Z,71.03
2023-03-16T08:35:30.248Z,70.16
2023-03-16T08:37:56.885Z,69.19
2023-03-16T08:40:25.099Z,70.09
2023-03-16T08:42:52.523Z,70.21
2023-03-16T08:45:20.029Z,69.82
2023-03-16T08:47:46.807Z,69.51
2023-03-16T08:50:13.748Z,68.70
2023-03-16T08:52:40.895Z,69.23
2023-03-16T08:55:09.697Z,68.25
2023-03-16T08:57:37.616Z,69.42
2023-03-16T09:00:12.807Z,69.30
2023-03-16T09:02:40.849Z,69.75
2023-03-16T09:05:12.826Z,67.92
2023-03-16T09:07:39.671Z,69.00
2023-03-16T09:10:13.536Z,69.47
2023-03-16T09:12:41.059Z,67.83
2023-03-16T09:15:10.224Z,66.99
2023-03-16T09:17:36.868Z,66.46
2023-03-16T09:20:19.616Z,66.23
2023-03-16T09:22:48.809Z,67.39
2023-03-16T09:25:15.674Z,68.34
2023-03-16T09:27:42.753Z,67.01
2023-03-16T09:30:10.530Z,66.68
2023-03-16T09:32:37.593Z,65.85
2023-03-16T09:35:06.398Z,67.17
2023-03-16T09:37:44.628Z,67.79
2023-03-16T09:40:38.288Z,67.24
2023-03-16T09:43:17.444Z,67.29
2023-03-16T09:46:12.114Z,67.15
2023-03-16T09:48:39.923Z,68.67
2023-03-16T09:51:14.613Z,67.90
2023-03-16T09:53:42.081Z,69.46
2023-03-16T09:56:18.351Z,69.20
2023-03-16T09:58:45.773Z,69.67
2023-03-16T10:01:31.062Z,70.14
2023-03-16T10:04:09.909Z,71.15
2023-03-16T10:06:55.398Z,68.97
2023-03-16T10:09:38.417Z,69.86
2023-03-16T10:12:07.908Z,69.08
2023-03-16T10:14:58.742Z,68.27
2023-03-16T10:17:38.915Z,69.20
2023-03-16T10:20:10.767Z,69.29
2023-03-16T10:22:44.916Z,69.56
2023-03-16T10:25:23.674Z,68.08
2023-03-16T10:27:50.806Z,69.10
2023-03-16T10:30:25.805Z,69.55
2023-03-16T10:32:52.900Z,69.49
2023-03-16T10:35:44.932Z,68.47
2023-03-16T10:38:43.218Z,68.86
2023-03-16T10:41:19.185Z,70.13
2023-03-16T10:43:51.952Z,69.57
2023-03-16T10:46:19.074Z,70.22
2023-03-16T10:49:02.236Z,69.21
2023-03-16T10:51:37.378Z,68.16
2023-03-16T10:54:19.797Z,68.55
2023-03-16T10:56:46.436Z,68.13
2023-03-16T10:59:32.057Z,68.87
2023-03-16T11:01:59.650Z,67.11
2023-03-16T11:04:31.884Z,68.19
2023-03-16T11:06:59.279Z,68.28
2023-03-16T11:09:34.896Z,68.43
2023-03-16T11:12:14.212Z,66.37
2023-03-16T11:14:45.038Z,67.85
2023-03-16T11:17:17.771Z,66.26
2023-03-16T11:19:57.864Z,66.44
2023-03-16T11:22:26.209Z,66.79
2023-03-16T11:25:12.664Z,67.74
2023-03-16T11:28:00.324Z,65.96
2023-03-16T11:30:41.414Z,65.53
2023-03-16T11:33:14.270Z,66.30
2023-03-16T11:35:58.772Z,66.44
2023-03-16T11:38:31.668Z,67.52
2023-03-16T11:41:10.733Z,65.91
2023-03-16T11:43:56.996Z,66.92
2023-03-16T11:46:25.668Z,66.93
2023-03-16T11:48:59.975Z,66.86
2023-03-16T11:51:36.607Z,66.85
2023-03-16T11:54:15.466Z,68.57
2023-03-16T11:57:29.722Z,68.23
2023-03-16T12:00:12.998Z,67.59
2023-03-16T12:03:15.091Z,67.68
2023-03-16T12:05:48.685Z,69.04
2023-03-16T12:08:34.102Z,68.89
2023-03-16T12:11:08.412Z,67.61
2023-03-16T12:13:40.916Z,67.26
2023-03-16T12:16:49.176Z,67.76
2023-03-16T12:19:24.971Z,68.07
2023-03-16T12:22:13.913Z,66.90
2023-03-16T12:24:44.095Z,66.36
2023-03-16T12:27:16.299Z,67.02
2023-03-16T12:29:55.738Z,67.93
2023-03-16T12:32:35.657Z,67.15
2023-03-16T12:35:11.847Z,66.06
2023-03-16T12:37:50.379Z,65.25
2023-03-16T12:40:20.563Z,65.72
2023-03-16T12:43:08.429Z,66.10
2023-03-16T12:45:51.888Z,67.24
2023-03-16T12:48:29.912Z,67.67
2023-03-16T12:50:59.713Z,67.93
2023-03-16T12:53:44.093Z,70.11
2023-03-16T12:56:19.703Z,71.74
2023-03-16T12:58:50.281Z,72.99
2023-03-16T13:01:20.862Z,71.18
2023-03-16T13:03:50.904Z,72.53
2023-03-16T13:06:24.977Z,74.21
2023-03-16T13:09:01.403Z,72.58
2023-03-16T13:11:28.683Z,72.71
2023-03-16T13:14:01.085Z,72.33
2023-03-16T13:16:30.658Z,73.22
2023-03-16T13:18:57.610Z,72.67
2023-03-16T13:21:42.719Z,71.13
2023-03-16T13:24:26.124Z,71.02
2023-03-16T13:27:06.623Z,70.44
2023-03-16T13:29:34.010Z,70.27
2023-03-16T13:32:08.729Z,70.75
2023-03-16T13:34:51.021Z,72.09
2023-03-16T13:37:20.665Z,70.03
2023-03-16T13:39:56.054Z,70.29
2023-03-16T13:42:24.649Z,71.21
2023-03-16T13:44:56.688Z,71.39
2023-03-16T13:47:27.790Z,69.87
2023-03-16T13:49:59.513Z,69.95
2023-03-16T13:52:34.435Z,69.52
2023-03-16T13:55:15.385Z,71.16
2023-03-16T13:57:44.377Z,70.65
2023-03-16T14:00:32.406Z,70.69
2023-03-16T14:03:04.412Z,70.42
2023-03-16T14:05:35.262Z,70.18
2023-03-16T14:08:02.322Z,69.43
2023-03-16T14:10:34.402Z,72.03
2023-03-16T14:13:25.544Z,71.74
2023-03-16T14:16:19.913Z,72.45
2023-03-16T14:18:52.119Z,71.64
2023-03-16T14:21:27.699Z,71.03
2023-03-16T14:24:00.175Z,70.33
2023-03-16T14:26:27.221Z,69.59
2023-03-16T14:29:02.791Z,68.78
2023-03-16T14:31:35.812Z,68.02
2023-03-16T14:34:04.957Z,70.80
2023-03-16T14:36:37.249Z,70.18
2023-03-16T14:39:16.919Z,69.41
2023-03-16T14:41:45.396Z,68.90
2023-03-16T14:44:24.512Z,69.66
2023-03-16T14:46:54.228Z,71.33
2023-03-16T14:49:33.618Z,71.91
2023-03-16T14:52:12.196Z,72.17
2023-03-16T14:54:38.791Z,72.94
2023-03-16T14:57:05.932Z,72.52
2023-03-16T14:59:33.838Z,71.30
2023-03-16T15:02:03.234Z,72.77
2023-03-16T15:04:36.475Z,72.28
2023-03-16T15:07:19.441Z,72.26
2023-03-16T15:09:46.387Z,73.10
2023-03-16T15:12:18.161Z,71.90
2023-03-16T15:15:03.351Z,71.06
2023-03-16T15:17:30.510Z,72.09
2023-03-16T15:19:57.448Z,71.45
2023-03-16T15:22:31.769Z,69.80
2023-03-16T15:25:00.202Z,70.55
2023-03-16T15:27:35.788Z,71.63
2023-03-16T15:30:02.524Z,70.63
2023-03-16T15:32:29.251Z,71.03
2023-03-16T15:34:55.927Z,70.87
2023-03-16T15:37:24.451Z,71.04
2023-03-16T15:39:51.502Z,71.60
2023-03-16T15:42:19.409Z,69.78
2023-03-16T15:44:46.824Z,70.34
2023-03-16T15:47:13.566Z,71.60
2023-03-16T15:49:47.212Z,71.57
2023-03-16T15:52:26.887Z,71.86
2023-03-16T15:54:53.668Z,70.94
2023-03-16T15:57:20.938Z,70.47
2023-03-16T15:59:47.642Z,70.73
2023-03-16T16:02:31.997Z,70.83
2023-03-16T16:04:59.560Z,70.27
2023-03-16T16:07:27.201Z,71.32
2023-03-16T16:09:53.808Z,70.20
2023-03-16T16:12:26.839Z,69.63
2023-03-16T16:14:56.328Z,71.41
2023-03-16T16:17:36.620Z,70.59
2023-03-16T16:20:22.916Z,69.63
2023-03-16T16:22:52.040Z,69.69
2023-03-16T16:25:21.357Z,69.60
2023-03-16T16:27:48.272Z,69.56
2023-03-16T16:30:23.518Z,69.60
2023-03-16T16:32:51.424Z,71.90
2023-03-16T16:35:23.046Z,72.03
2023-03-16T16:37:50.600Z,73.42
2023-03-16T16:40:20.041Z,71.70
2023-03-16T16:42:48.280Z,72.90
2023-03-16T16:45:23.798Z,71.17
2023-03-16T16:47:53.172Z,70.74
2023-03-16T16:50:23.492Z,70.87
2023-03-16T16:52:50.317Z,71.66
2023-03-16T16:55:17.942Z,70.91
2023-03-16T16:57:45.614Z,71.78
2023-03-16T17:00:21.386Z,71.81
2023-03-16T17:02:51.690Z,72.24
2023-03-16T17:05:22.432Z,71.23
2023-03-16T17:07:50.243Z,71.40
2023-03-16T17:10:22.773Z,70.93
2023-03-16T17:12:55.296Z,69.95
2023-03-16T17:15:26.563Z,71.02
2023-03-16T17:18:00.043Z,71.39
2023-03-16T17:20:27.483Z,72.06
2023-03-16T17:22:57.285Z,72.47
2023-03-16T17:25:24.665Z,69.87
2023-03-16T17:27:54.567Z,71.39
2023-03-16T17:30:27.641Z,70.51
2023-03-16T17:32:59.357Z,69.63
2023-03-16T17:35:26.328Z,68.70
2023-03-16T17:37:52.948Z,70.41
2023-03-16T17:40:22.752Z,69.97
2023-03-16T17:42:50.474Z,69.38
2023-03-16T17:45:18.584Z,69.79
2023-03-16T17:47:45.333Z,69.22
2023-03-16T17:50:17.986Z,70.10
2023-03-16T17:52:44.669Z,69.37
2023-03-16T17:55:11.516Z,68.70
2023-03-16T17:57:38.710Z,70.49
2023-03-16T18:00:20.363Z,72.66
2023-03-16T18:02:56.001Z,72.42
2023-03-16T18:05:34.785Z,73.18
2023-03-16T18:08:25.980Z,72.18
2023-03-16T18:10:59.176Z,71.85
2023-03-16T18:13:28.137Z,71.61
2023-03-16T18:15:56.039Z,72.36
2023-03-16T18:18:26.378Z,75.00
2023-03-16T18:20:54.938Z,74.68
2023-03-16T18:23:23.515Z,72.94
2023-03-16T18:25:52.622Z,73.18
2023-03-16T18:28:20.686Z,72.23
2023-03-16T18:30:52.110Z,71.50
2023-03-16T18:33:30.139Z,70.13
2023-03-16T18:35:59.782Z,70.32
2023-03-16T18:38:39.324Z,73.27
2023-03-16T18:41:21.037Z,73.29
2023-03-16T18:43:47.779Z,73.25
2023-03-16T18:46:35.881Z,73.22
2023-03-16T18:49:10.769Z,71.57
2023-03-16T18:51:37.462Z,71.90
2023-03-16T18:54:04.952Z,70.26
2023-03-16T18:56:31.879Z,71.07
2023-03-16T18:58:58.460Z,72.69
2023-03-16T19:01:28.935Z,72.48
2023-03-16T19:03:57.857Z,72.57
2023-03-16T19:06:33.686Z,72.38
2023-03-16T19:09:08.775Z,72.89
2023-03-16T19:11:41.549Z,73.24
2023-03-16T19:14:24.524Z,72.57
2023-03-16T19:16:52.539Z,71.93
2023-03-16T19:19:23.398Z,72.27
2023-03-16T19:21:53.809Z,71.17
2023-03-16T19:24:34.577Z,69.78
2023-03-16T19:27:02.267Z,72.03
2023-03-16T19:29:34.300Z,72.14
2023-03-16T19:32:02.270Z,72.47
2023-03-16T19:34:29.230Z,73.03
2023-03-16T19:36:56.011Z,73.06
2023-03-16T19:39:22.749Z,72.96
2023-03-16T19:41:56.511Z,72.87
2023-03-16T19:44:26.555Z,73.24
2023-03-16T19:46:53.711Z,75.21
2023-03-16T19:49:27.102Z,74.98
2023-03-16T19:51:55.372Z,74.39
2023-03-16T19:54:28.207Z,72.71
2023-03-16T19:56:56.510Z,73.31
2023-03-16T19:59:26.735Z,73.41
2023-03-16T20:01:53.520Z,72.82
2023-03-16T20:04:25.253Z,72.02
2023-03-16T20:06:53.774Z,72.73
2023-03-16T20:09:20.879Z,72.16
2023-03-16T20:11:48.587Z,72.17
2023-03-16T20:14:29.157Z,73.12
2023-03-16T20:16:56.082Z,72.14
2023-03-16T20:19:23.225Z,72.24
2023-03-16T20:21:49.944Z,72.93
2023-03-16T20:24:19.240Z,72.83
2023-03-16T20:26:48.528Z,72.34
2023-03-16T20:29:44.491Z,73.32
2023-03-16T20:32:23.459Z,72.14
2023-03-16T20:34:51.306Z,72.11
2023-03-16T20:37:27.160Z,71.79
2023-03-16T20:39:56.089Z,74.03
2023-03-16T20:42:27.629Z,73.17
2023-03-16T20:44:54.472Z,72.52
2023-03-16T20:47:23.978Z,73.88
2023-03-16T20:49:52.452Z,73.70
2023-03-16T20:52:30.448Z,72.88
2023-03-16T20:54:58.088Z,72.02
2023-03-16T20:57:27.590Z,73.05
2023-03-16T20:59:55.452Z,72.95
2023-03-16T21:02:29.743Z,72.05
2023-03-16T21:04:59.343Z,72.15
2023-03-16T21:07:26.076Z,71.25
2023-03-16T21:09:52.815Z,70.99
2023-03-16T21:12:32.215Z,70.40
2023-03-16T21:15:00.284Z,70.46
2023-03-16T21:17:33.082Z,70.18
2023-03-16T21:20:00.924Z,69.84
2023-03-16T21:22:30.429Z,69.27
2023-03-16T21:24:57.907Z,69.77
2023-03-16T21:27:32.951Z,70.35
2023-03-16T21:30:07.327Z,71.22
2023-03-16T21:32:34.087Z,71.34
2023-03-16T21:35:00.868Z,71.64
2023-03-16T21:37:28.009Z,73.76
2023-03-16T21:39:54.759Z,73.15
2023-03-16T21:42:22.265Z,72.47
2023-03-16T21:44:48.901Z,71.26
2023-03-16T21:47:26.063Z,70.97
2023-03-16T21:49:54.670Z,71.89
2023-03-16T21:52:23.775Z,72.61
2023-03-16T21:54:52.843Z,71.56
2023-03-16T21:57:19.991Z,70.31
2023-03-16T21:59:47.172Z,70.04
2023-03-16T22:02:22.673Z,69.45
2023-03-16T22:04:50.853Z,69.27
2023-03-16T22:07:18.302Z,69.07
2023-03-16T22:09:45.480Z,69.39
2023-03-16T22:12:14.034Z,68.22
2023-03-16T22:14:41.886Z,69.77
2023-03-16T22:17:21.878Z,70.33
2023-03-16T22:19:48.770Z,69.81
2023-03-16T22:22:17.538Z,69.69
2023-03-16T22:24:44.193Z,68.68
2023-03-16T22:27:19.108Z,68.96
2023-03-16T22:29:45.852Z,69.69
2023-03-16T22:32:18.173Z,69.26
2023-03-16T22:34:51.024Z,68.75
2023-03-16T22:37:21.193Z,70.26
2023-03-16T22:39:49.286Z,70.61
2023-03-16T22:42:26.042Z,72.87
2023-03-16T22:44:54.347Z,70.49
2023-03-16T22:47:26.546Z,69.93
2023-03-16T22:49:53.969Z,69.43
2023-03-16T22:52:25.612Z,69.66
2023-03-16T22:54:52.851Z,68.63
2023-03-16T22:57:19.867Z,67.57
2023-03-16T22:59:48.056Z,68.79
2023-03-16T23:02:16.130Z,67.88
2023-03-16T23:04:42.848Z,68.47
2023-03-16T23:07:12.561Z,68.68
2023-03-16T23:09:39.739Z,69.95
2023-03-16T23:12:14.934Z,70.56
2023-03-16T23:14:42.347Z,70.88
2023-03-16T23:17:20.803Z,69.88
2023-03-16T23:19:49.281Z,69.77
2023-03-16T23:22:16.366Z,69.43
2023-03-16T23:24:43.337Z,69.17
2023-03-16T23:27:27.966Z,70.11
2023-03-16T23:29:54.617Z,69.75
2023-03-16T23:32:21.951Z,70.36
2023-03-16T23:34:48.536Z,69.36
2023-03-16T23:37:15.902Z,68.18
2023-03-16T23:39:42.516Z,68.54
2023-03-16T23:42:09.404Z,68.62
2023-03-16T23:44:36.480Z,68.77
2023-03-16T23:47:03.176Z,69.16
2023-03-16T23:49:33.062Z,70.04
2023-03-16T23:52:01.566Z,69.50
2023-03-16T23:54:31.114Z,69.17
2023-03-16T23:56:58.032Z,70.44
2023-03-16T23:59:26.847Z,71.51
